Main page
METAR-TAF:

METAR-TAF

Airports :

Yaoundé Nsimalen International Airport

Yaoundé, Cameroon

latitude: 03-50N, longitude: 011-31E, elevation: 751 m

METAR: missing

Time: 02:31 (01:31 UTC)

Forecast

The report was made 2 hours and 31 minutes ago, at 23:00 UTC
Forecast valid from 19 at 00 UTC to 19 at 24 UTC
Wind 3 kt from variable directions
Visibility 10 km or more
Broken clouds at a height of 600 ft
Temporary
from 19 at 03 UTC to 19 at 07 UTC
Visibility: 4000 m
Broken clouds at a height of 600 ft
Scattered clouds at a height of 1000 ft, Cumulonimbus.
thunderstorm, rain
Becoming
from 19 at 09 UTC to 19 at 11 UTC
Broken clouds at a height of 1600 ft
Becoming
from 19 at 21 UTC to 19 at 23 UTC
Broken clouds at a height of 600 ft

TAF: FKYS 182300Z 1900/1924 VRB03KT 9999 BKN006 TEMPO 1903/1907 4000 TSRA BKN006 SCT010CB BECMG 1909/1911 BKN016 BECMG 1921/1923 BKN006

Weather observations and forecasts of more than 4000 airports (METAR and TAF reports).

The available stations are represented by yellow and red dots on the map.

Hover mouse over dot to see the name of the station.

Then click to see weather observations and forecasts.

To change the map : click on the green buttons with a black cross to zoom in, on the green button with a dash to zoom out, or on the green arrows for adjacent maps.


METAR-TAF: